sensor_id;sensor_type;location;lat;lon;timestamp;temperature;humidity
652;DHT22;310;48.490;9.200;2023-03-19T00:02:03;14.80;28.90
652;DHT22;310;48.490;9.200;2023-03-19T00:04:29;14.70;29.30
652;DHT22;310;48.490;9.200;2023-03-19T00:06:55;14.50;28.70
652;DHT22;310;48.490;9.200;2023-03-19T00:09:20;14.90;28.40
652;DHT22;310;48.490;9.200;2023-03-19T00:11:47;14.70;28.80
652;DHT22;310;48.490;9.200;2023-03-19T00:14:13;14.60;28.10
652;DHT22;310;48.490;9.200;2023-03-19T00:16:39;14.70;28.50
652;DHT22;310;48.490;9.200;2023-03-19T00:19:05;14.60;28.10
652;DHT22;310;48.490;9.200;2023-03-19T00:21:31;14.90;27.40
652;DHT22;310;48.490;9.200;2023-03-19T00:23:57;14.90;28.30
652;DHT22;310;48.490;9.200;2023-03-19T00:26:27;15.00;27.80
652;DHT22;310;48.490;9.200;2023-03-19T00:28:54;14.80;29.10
652;DHT22;310;48.490;9.200;2023-03-19T00:31:20;14.80;29.30
652;DHT22;310;48.490;9.200;2023-03-19T00:33:46;15.00;30.80
652;DHT22;310;48.490;9.200;2023-03-19T00:36:12;14.70;29.50
652;DHT22;310;48.490;9.200;2023-03-19T00:38:38;14.60;29.30
652;DHT22;310;48.490;9.200;2023-03-19T00:41:05;14.70;28.80
652;DHT22;310;48.490;9.200;2023-03-19T00:43:31;14.80;29.00
652;DHT22;310;48.490;9.200;2023-03-19T00:45:57;14.60;29.80
652;DHT22;310;48.490;9.200;2023-03-19T00:48:23;14.90;28.80
652;DHT22;310;48.490;9.200;2023-03-19T00:50:49;14.70;29.70
652;DHT22;310;48.490;9.200;2023-03-19T00:53:15;14.90;28.20
652;DHT22;310;48.490;9.200;2023-03-19T00:55:41;15.20;27.90
652;DHT22;310;48.490;9.200;2023-03-19T00:58:07;14.90;27.80
652;DHT22;310;48.490;9.200;2023-03-19T01:00:35;14.80;28.60
652;DHT22;310;48.490;9.200;2023-03-19T01:03:01;14.60;28.40
652;DHT22;310;48.490;9.200;2023-03-19T01:05:26;14.80;29.50
652;DHT22;310;48.490;9.200;2023-03-19T01:07:52;14.40;29.10
652;DHT22;310;48.490;9.200;2023-03-19T01:10:22;14.70;29.00
652;DHT22;310;48.490;9.200;2023-03-19T01:12:49;14.70;29.20
652;DHT22;310;48.490;9.200;2023-03-19T01:15:15;14.20;28.00
652;DHT22;310;48.490;9.200;2023-03-19T01:17:41;14.20;29.00
652;DHT22;310;48.490;9.200;2023-03-19T01:20:08;14.40;30.00
652;DHT22;310;48.490;9.200;2023-03-19T01:22:38;14.10;28.70
652;DHT22;310;48.490;9.200;2023-03-19T01:25:06;13.50;28.70
652;DHT22;310;48.490;9.200;2023-03-19T01:27:32;13.60;29.20
652;DHT22;310;48.490;9.200;2023-03-19T01:29:58;13.50;29.50
652;DHT22;310;48.490;9.200;2023-03-19T01:32:23;13.60;29.30
652;DHT22;310;48.490;9.200;2023-03-19T01:34:49;13.70;29.50
652;DHT22;310;48.490;9.200;2023-03-19T01:37:15;14.10;29.90
652;DHT22;310;48.490;9.200;2023-03-19T01:39:41;14.30;29.00
652;DHT22;310;48.490;9.200;2023-03-19T01:42:06;14.50;28.40
652;DHT22;310;48.490;9.200;2023-03-19T01:44:35;14.40;29.10
652;DHT22;310;48.490;9.200;2023-03-19T01:47:16;14.40;29.10
652;DHT22;310;48.490;9.200;2023-03-19T01:49:43;14.50;29.00
652;DHT22;310;48.490;9.200;2023-03-19T01:52:12;14.60;29.20
652;DHT22;310;48.490;9.200;2023-03-19T01:54:40;14.50;31.70
652;DHT22;310;48.490;9.200;2023-03-19T01:57:08;14.30;32.10
652;DHT22;310;48.490;9.200;2023-03-19T01:59:41;14.40;31.40
652;DHT22;310;48.490;9.200;2023-03-19T02:02:27;14.20;33.70
652;DHT22;310;48.490;9.200;2023-03-19T02:05:07;14.40;32.10
652;DHT22;310;48.490;9.200;2023-03-19T02:07:35;14.70;33.20
652;DHT22;310;48.490;9.200;2023-03-19T02:10:05;14.70;32.80
652;DHT22;310;48.490;9.200;2023-03-19T02:12:32;14.80;31.70
652;DHT22;310;48.490;9.200;2023-03-19T02:14:57;14.70;33.10
652;DHT22;310;48.490;9.200;2023-03-19T02:17:23;14.80;30.50
652;DHT22;310;48.490;9.200;2023-03-19T02:20:22;14.90;30.60
652;DHT22;310;48.490;9.200;2023-03-19T02:28:15;14.70;36.00
652;DHT22;310;48.490;9.200;2023-03-19T02:30:43;14.60;37.80
652;DHT22;310;48.490;9.200;2023-03-19T02:33:16;14.70;35.30
652;DHT22;310;48.490;9.200;2023-03-19T02:35:47;13.80;40.50
652;DHT22;310;48.490;9.200;2023-03-19T02:38:14;12.90;44.00
652;DHT22;310;48.490;9.200;2023-03-19T02:41:02;12.70;47.70
652;DHT22;310;48.490;9.200;2023-03-19T02:43:30;12.50;46.20
652;DHT22;310;48.490;9.200;2023-03-19T02:45:56;12.80;48.20
652;DHT22;310;48.490;9.200;2023-03-19T02:48:23;13.10;46.00
652;DHT22;310;48.490;9.200;2023-03-19T02:50:49;13.40;43.90
652;DHT22;310;48.490;9.200;2023-03-19T02:53:15;14.30;41.90
652;DHT22;310;48.490;9.200;2023-03-19T02:55:41;14.20;40.30
652;DHT22;310;48.490;9.200;2023-03-19T02:58:07;14.30;41.30
652;DHT22;310;48.490;9.200;2023-03-19T03:00:33;14.20;40.40
652;DHT22;310;48.490;9.200;2023-03-19T03:02:59;14.30;41.00
652;DHT22;310;48.490;9.200;2023-03-19T03:05:25;14.10;44.20
652;DHT22;310;48.490;9.200;2023-03-19T03:07:51;13.70;44.50
652;DHT22;310;48.490;9.200;2023-03-19T03:10:17;13.70;45.70
652;DHT22;310;48.490;9.200;2023-03-19T03:12:43;13.40;46.70
652;DHT22;310;48.490;9.200;2023-03-19T03:15:09;13.20;47.70
652;DHT22;310;48.490;9.200;2023-03-19T03:17:39;13.50;47.70
652;DHT22;310;48.490;9.200;2023-03-19T03:20:06;13.90;45.80
652;DHT22;310;48.490;9.200;2023-03-19T03:22:32;14.10;44.80
652;DHT22;310;48.490;9.200;2023-03-19T03:24:57;14.40;45.60
652;DHT22;310;48.490;9.200;2023-03-19T03:27:23;14.20;44.70
652;DHT22;310;48.490;9.200;2023-03-19T03:29:49;14.20;45.20
652;DHT22;310;48.490;9.200;2023-03-19T03:32:15;14.20;44.50
652;DHT22;310;48.490;9.200;2023-03-19T03:34:41;14.40;45.70
652;DHT22;310;48.490;9.200;2023-03-19T03:37:06;13.30;48.50
652;DHT22;310;48.490;9.200;2023-03-19T03:39:32;13.40;48.90
652;DHT22;310;48.490;9.200;2023-03-19T03:41:58;13.70;47.10
652;DHT22;310;48.490;9.200;2023-03-19T03:44:23;13.60;46.90
652;DHT22;310;48.490;9.200;2023-03-19T03:46:49;13.60;47.30
652;DHT22;310;48.490;9.200;2023-03-19T03:49:14;13.70;46.50
652;DHT22;310;48.490;9.200;2023-03-19T03:51:40;13.70;46.10
652;DHT22;310;48.490;9.200;2023-03-19T03:54:06;13.70;46.50
652;DHT22;310;48.490;9.200;2023-03-19T03:56:32;13.90;46.00
652;DHT22;310;48.490;9.200;2023-03-19T03:58:58;13.80;46.40
652;DHT22;310;48.490;9.200;2023-03-19T04:01:24;13.80;46.70
652;DHT22;310;48.490;9.200;2023-03-19T04:03:50;13.90;46.30
652;DHT22;310;48.490;9.200;2023-03-19T04:06:18;14.10;46.60
652;DHT22;310;48.490;9.200;2023-03-19T04:08:43;14.00;46.40
652;DHT22;310;48.490;9.200;2023-03-19T04:11:10;14.10;46.40
652;DHT22;310;48.490;9.200;2023-03-19T04:13:36;14.20;46.60
652;DHT22;310;48.490;9.200;2023-03-19T04:16:05;14.10;46.50
652;DHT22;310;48.490;9.200;2023-03-19T04:18:32;14.10;47.00
652;DHT22;310;48.490;9.200;2023-03-19T04:20:58;14.00;47.20
652;DHT22;310;48.490;9.200;2023-03-19T04:23:24;14.00;47.50
652;DHT22;310;48.490;9.200;2023-03-19T04:25:50;14.10;47.30
652;DHT22;310;48.490;9.200;2023-03-19T04:28:16;14.20;46.50
652;DHT22;310;48.490;9.200;2023-03-19T04:30:41;14.20;46.60
652;DHT22;310;48.490;9.200;2023-03-19T04:33:10;14.10;47.40
652;DHT22;310;48.490;9.200;2023-03-19T04:35:36;14.20;47.50
652;DHT22;310;48.490;9.200;2023-03-19T04:38:02;14.30;46.50
652;DHT22;310;48.490;9.200;2023-03-19T04:40:28;14.40;45.90
652;DHT22;310;48.490;9.200;2023-03-19T04:42:54;14.30;46.80
652;DHT22;310;48.490;9.200;2023-03-19T04:45:19;14.10;47.60
652;DHT22;310;48.490;9.200;2023-03-19T04:47:45;14.00;48.60
652;DHT22;310;48.490;9.200;2023-03-19T04:50:11;13.80;49.80
652;DHT22;310;48.490;9.200;2023-03-19T04:52:38;13.80;49.70
652;DHT22;310;48.490;9.200;2023-03-19T04:55:06;13.90;49.40
652;DHT22;310;48.490;9.200;2023-03-19T04:57:32;14.00;48.90
652;DHT22;310;48.490;9.200;2023-03-19T04:59:58;14.20;47.90
652;DHT22;310;48.490;9.200;2023-03-19T05:02:23;14.30;47.30
652;DHT22;310;48.490;9.200;2023-03-19T05:04:49;14.60;45.90
652;DHT22;310;48.490;9.200;2023-03-19T05:07:15;14.50;46.50
652;DHT22;310;48.490;9.200;2023-03-19T05:09:40;14.20;46.50
652;DHT22;310;48.490;9.200;2023-03-19T05:12:09;14.10;48.00
652;DHT22;310;48.490;9.200;2023-03-19T05:14:35;14.10;48.20
652;DHT22;310;48.490;9.200;2023-03-19T05:17:01;14.20;47.60
652;DHT22;310;48.490;9.200;2023-03-19T05:19:27;14.10;48.30
652;DHT22;310;48.490;9.200;2023-03-19T05:21:53;13.90;48.70
652;DHT22;310;48.490;9.200;2023-03-19T05:24:18;13.90;49.40
652;DHT22;310;48.490;9.200;2023-03-19T05:26:44;14.00;48.30
652;DHT22;310;48.490;9.200;2023-03-19T05:29:10;14.00;48.10
652;DHT22;310;48.490;9.200;2023-03-19T05:31:37;14.10;48.20
652;DHT22;310;48.490;9.200;2023-03-19T05:34:03;14.00;48.40
652;DHT22;310;48.490;9.200;2023-03-19T05:36:29;13.70;48.60
652;DHT22;310;48.490;9.200;2023-03-19T05:38:55;13.50;49.30
652;DHT22;310;48.490;9.200;2023-03-19T05:41:20;13.50;49.40
652;DHT22;310;48.490;9.200;2023-03-19T05:43:46;13.60;49.10
652;DHT22;310;48.490;9.200;2023-03-19T05:46:11;13.80;48.80
652;DHT22;310;48.490;9.200;2023-03-19T05:48:37;14.00;48.90
652;DHT22;310;48.490;9.200;2023-03-19T05:51:03;14.00;46.90
652;DHT22;310;48.490;9.200;2023-03-19T05:53:29;14.00;47.50
652;DHT22;310;48.490;9.200;2023-03-19T05:55:54;13.90;47.70
652;DHT22;310;48.490;9.200;2023-03-19T05:58:20;14.00;48.00
652;DHT22;310;48.490;9.200;2023-03-19T06:00:45;14.40;48.60
652;DHT22;310;48.490;9.200;2023-03-19T06:03:13;14.20;48.00
652;DHT22;310;48.490;9.200;2023-03-19T06:05:38;14.20;48.10
652;DHT22;310;48.490;9.200;2023-03-19T06:08:04;14.40;46.50
652;DHT22;310;48.490;9.200;2023-03-19T06:10:30;14.50;44.90
652;DHT22;310;48.490;9.200;2023-03-19T06:12:56;14.50;45.60
652;DHT22;310;48.490;9.200;2023-03-19T06:15:21;14.40;46.80
652;DHT22;310;48.490;9.200;2023-03-19T06:17:47;13.70;48.90
652;DHT22;310;48.490;9.200;2023-03-19T06:20:12;13.70;49.30
652;DHT22;310;48.490;9.200;2023-03-19T06:22:38;13.90;48.50
652;DHT22;310;48.490;9.200;2023-03-19T06:25:04;14.20;47.60
652;DHT22;310;48.490;9.200;2023-03-19T06:27:31;14.00;46.90
652;DHT22;310;48.490;9.200;2023-03-19T06:29:56;14.20;49.00
652;DHT22;310;48.490;9.200;2023-03-19T06:32:22;13.10;51.50
652;DHT22;310;48.490;9.200;2023-03-19T06:34:47;12.80;56.70
652;DHT22;310;48.490;9.200;2023-03-19T06:37:13;12.10;59.70
652;DHT22;310;48.490;9.200;2023-03-19T06:39:38;12.20;59.80
652;DHT22;310;48.490;9.200;2023-03-19T06:42:04;12.90;55.20
652;DHT22;310;48.490;9.200;2023-03-19T06:44:30;13.30;51.70
652;DHT22;310;48.490;9.200;2023-03-19T06:46:55;13.80;48.80
652;DHT22;310;48.490;9.200;2023-03-19T06:49:21;14.20;46.40
652;DHT22;310;48.490;9.200;2023-03-19T06:51:47;14.40;46.10
652;DHT22;310;48.490;9.200;2023-03-19T06:54:12;14.50;45.20
652;DHT22;310;48.490;9.200;2023-03-19T06:56:38;14.50;45.00
652;DHT22;310;48.490;9.200;2023-03-19T06:59:04;14.60;43.20
652;DHT22;310;48.490;9.200;2023-03-19T07:01:29;14.70;43.70
652;DHT22;310;48.490;9.200;2023-03-19T07:03:55;14.70;44.90
652;DHT22;310;48.490;9.200;2023-03-19T07:06:21;14.60;46.00
652;DHT22;310;48.490;9.200;2023-03-19T07:08:47;14.70;46.00
652;DHT22;310;48.490;9.200;2023-03-19T07:11:13;14.60;46.20
652;DHT22;310;48.490;9.200;2023-03-19T07:13:39;14.60;46.70
652;DHT22;310;48.490;9.200;2023-03-19T07:16:05;14.80;46.40
652;DHT22;310;48.490;9.200;2023-03-19T07:18:30;14.50;47.00
652;DHT22;310;48.490;9.200;2023-03-19T07:20:56;14.90;47.70
652;DHT22;310;48.490;9.200;2023-03-19T07:23:22;14.60;47.20
652;DHT22;310;48.490;9.200;2023-03-19T07:25:48;14.50;47.70
652;DHT22;310;48.490;9.200;2023-03-19T07:28:14;14.30;49.70
652;DHT22;310;48.490;9.200;2023-03-19T07:30:39;14.80;50.10
652;DHT22;310;48.490;9.200;2023-03-19T07:33:05;14.70;48.80
652;DHT22;310;48.490;9.200;2023-03-19T07:35:32;15.00;47.10
652;DHT22;310;48.490;9.200;2023-03-19T07:37:58;15.00;45.00
652;DHT22;310;48.490;9.200;2023-03-19T07:40:24;14.90;46.00
652;DHT22;310;48.490;9.200;2023-03-19T07:42:51;14.90;45.40
652;DHT22;310;48.490;9.200;2023-03-19T07:45:17;15.10;43.70
652;DHT22;310;48.490;9.200;2023-03-19T07:47:43;15.10;46.90
652;DHT22;310;48.490;9.200;2023-03-19T07:50:09;15.30;44.40
652;DHT22;310;48.490;9.200;2023-03-19T07:52:35;15.20;41.20
652;DHT22;310;48.490;9.200;2023-03-19T07:55:01;15.20;42.50
652;DHT22;310;48.490;9.200;2023-03-19T07:57:27;15.30;40.80
652;DHT22;310;48.490;9.200;2023-03-19T07:59:52;15.50;39.50
652;DHT22;310;48.490;9.200;2023-03-19T08:02:18;15.50;39.10
652;DHT22;310;48.490;9.200;2023-03-19T08:04:44;16.10;38.30
652;DHT22;310;48.490;9.200;2023-03-19T08:07:10;16.00;37.50
652;DHT22;310;48.490;9.200;2023-03-19T08:09:37;16.20;37.10
652;DHT22;310;48.490;9.200;2023-03-19T08:12:04;15.80;36.20
652;DHT22;310;48.490;9.200;2023-03-19T08:14:31;15.70;35.70
652;DHT22;310;48.490;9.200;2023-03-19T08:16:57;16.00;33.70
652;DHT22;310;48.490;9.200;2023-03-19T08:19:23;16.20;35.10
652;DHT22;310;48.490;9.200;2023-03-19T08:21:48;16.80;34.30
652;DHT22;310;48.490;9.200;2023-03-19T08:24:14;17.10;33.00
652;DHT22;310;48.490;9.200;2023-03-19T08:26:39;16.60;32.60
652;DHT22;310;48.490;9.200;2023-03-19T08:29:05;16.50;34.00
652;DHT22;310;48.490;9.200;2023-03-19T08:31:31;16.90;30.20
652;DHT22;310;48.490;9.200;2023-03-19T08:33:57;17.10;32.00
652;DHT22;310;48.490;9.200;2023-03-19T08:36:25;17.10;31.20
652;DHT22;310;48.490;9.200;2023-03-19T08:38:51;16.70;31.20
652;DHT22;310;48.490;9.200;2023-03-19T08:41:19;17.20;30.60
652;DHT22;310;48.490;9.200;2023-03-19T08:43:45;17.40;30.20
652;DHT22;310;48.490;9.200;2023-03-19T08:46:11;17.10;30.70
652;DHT22;310;48.490;9.200;2023-03-19T08:48:36;17.60;29.20
652;DHT22;310;48.490;9.200;2023-03-19T08:51:05;17.50;29.60
652;DHT22;310;48.490;9.200;2023-03-19T08:53:31;17.20;30.00
652;DHT22;310;48.490;9.200;2023-03-19T08:55:59;17.00;29.90
652;DHT22;310;48.490;9.200;2023-03-19T08:58:26;16.70;30.10
652;DHT22;310;48.490;9.200;2023-03-19T09:00:52;16.70;30.50
652;DHT22;310;48.490;9.200;2023-03-19T09:03:19;17.10;30.60
652;DHT22;310;48.490;9.200;2023-03-19T09:05:46;17.40;28.80
652;DHT22;310;48.490;9.200;2023-03-19T09:08:12;17.40;29.20
652;DHT22;310;48.490;9.200;2023-03-19T09:10:38;17.50;29.60
652;DHT22;310;48.490;9.200;2023-03-19T09:13:04;17.60;29.50
652;DHT22;310;48.490;9.200;2023-03-19T09:15:30;17.30;30.00
652;DHT22;310;48.490;9.200;2023-03-19T09:17:56;17.40;30.10
652;DHT22;310;48.490;9.200;2023-03-19T09:20:21;17.40;28.90
652;DHT22;310;48.490;9.200;2023-03-19T09:22:47;18.00;28.10
652;DHT22;310;48.490;9.200;2023-03-19T09:25:13;18.00;27.70
652;DHT22;310;48.490;9.200;2023-03-19T09:27:39;18.00;27.70
652;DHT22;310;48.490;9.200;2023-03-19T09:30:05;17.50;27.30
652;DHT22;310;48.490;9.200;2023-03-19T09:32:34;16.90;29.70
652;DHT22;310;48.490;9.200;2023-03-19T09:34:59;17.30;27.60
652;DHT22;310;48.490;9.200;2023-03-19T09:37:25;17.80;27.30
652;DHT22;310;48.490;9.200;2023-03-19T09:39:51;17.90;26.90
652;DHT22;310;48.490;9.200;2023-03-19T09:42:24;18.20;27.30
652;DHT22;310;48.490;9.200;2023-03-19T09:44:52;17.90;26.70
652;DHT22;310;48.490;9.200;2023-03-19T09:50:04;17.70;27.30
652;DHT22;310;48.490;9.200;2023-03-19T09:52:46;18.20;27.20
652;DHT22;310;48.490;9.200;2023-03-19T09:57:49;18.80;25.00
652;DHT22;310;48.490;9.200;2023-03-19T10:03:03;19.20;24.20
652;DHT22;310;48.490;9.200;2023-03-19T10:05:56;19.20;22.40
652;DHT22;310;48.490;9.200;2023-03-19T10:17:20;19.40;22.90
652;DHT22;310;48.490;9.200;2023-03-19T10:20:09;19.80;22.40
652;DHT22;310;48.490;9.200;2023-03-19T10:22:44;20.40;20.50
652;DHT22;310;48.490;9.200;2023-03-19T10:25:20;19.90;21.60
652;DHT22;310;48.490;9.200;2023-03-19T10:27:52;19.60;24.90
652;DHT22;310;48.490;9.200;2023-03-19T10:30:19;20.20;22.00
652;DHT22;310;48.490;9.200;2023-03-19T10:32:52;19.90;20.50
652;DHT22;310;48.490;9.200;2023-03-19T10:35:23;19.50;21.70
652;DHT22;310;48.490;9.200;2023-03-19T10:37:52;19.00;22.20
652;DHT22;310;48.490;9.200;2023-03-19T10:40:33;19.50;21.40
652;DHT22;310;48.490;9.200;2023-03-19T10:43:19;20.60;19.60
652;DHT22;310;48.490;9.200;2023-03-19T10:45:47;21.00;19.00
652;DHT22;310;48.490;9.200;2023-03-19T10:48:16;20.80;19.80
652;DHT22;310;48.490;9.200;2023-03-19T10:50:59;20.70;22.10
652;DHT22;310;48.490;9.200;2023-03-19T10:53:30;21.00;19.10
652;DHT22;310;48.490;9.200;2023-03-19T10:56:04;20.40;19.50
652;DHT22;310;48.490;9.200;2023-03-19T10:58:33;21.10;19.70
652;DHT22;310;48.490;9.200;2023-03-19T11:01:08;21.30;19.20
652;DHT22;310;48.490;9.200;2023-03-19T11:03:56;20.90;19.10
652;DHT22;310;48.490;9.200;2023-03-19T11:06:30;20.90;18.40
652;DHT22;310;48.490;9.200;2023-03-19T11:11:26;20.90;18.40
652;DHT22;310;48.490;9.200;2023-03-19T11:13:57;19.60;20.10
652;DHT22;310;48.490;9.200;2023-03-19T11:16:23;21.00;19.00
652;DHT22;310;48.490;9.200;2023-03-19T11:18:48;20.00;19.50
652;DHT22;310;48.490;9.200;2023-03-19T11:21:28;19.10;21.00
652;DHT22;310;48.490;9.200;2023-03-19T11:24:02;18.30;21.80
652;DHT22;310;48.490;9.200;2023-03-19T11:26:29;18.20;22.10
652;DHT22;310;48.490;9.200;2023-03-19T11:29:02;18.60;22.00
652;DHT22;310;48.490;9.200;2023-03-19T11:31:40;18.40;21.80
652;DHT22;310;48.490;9.200;2023-03-19T11:37:57;18.30;22.60
652;DHT22;310;48.490;9.200;2023-03-19T11:40:42;18.20;22.30
652;DHT22;310;48.490;9.200;2023-03-19T11:43:34;19.40;21.30
652;DHT22;310;48.490;9.200;2023-03-19T11:46:46;20.50;19.80
652;DHT22;310;48.490;9.200;2023-03-19T11:50:26;20.70;19.40
652;DHT22;310;48.490;9.200;2023-03-19T11:52:34;22.40;18.10
652;DHT22;310;48.490;9.200;2023-03-19T11:58:23;21.70;17.40
652;DHT22;310;48.490;9.200;2023-03-19T12:01:27;21.30;18.20
652;DHT22;310;48.490;9.200;2023-03-19T12:03:57;21.70;18.10
652;DHT22;310;48.490;9.200;2023-03-19T12:13:01;25.10;14.70
652;DHT22;310;48.490;9.200;2023-03-19T12:15:43;23.80;15.50
652;DHT22;310;48.490;9.200;2023-03-19T12:20:51;24.80;15.70
652;DHT22;310;48.490;9.200;2023-03-19T12:26:04;25.50;14.10
652;DHT22;310;48.490;9.200;2023-03-19T12:28:34;22.50;16.80
652;DHT22;310;48.490;9.200;2023-03-19T12:36:40;25.30;14.10
652;DHT22;310;48.490;9.200;2023-03-19T12:39:13;25.10;14.20
652;DHT22;310;48.490;9.200;2023-03-19T12:41:42;24.10;15.60
652;DHT22;310;48.490;9.200;2023-03-19T12:47:08;24.50;15.50
652;DHT22;310;48.490;9.200;2023-03-19T12:49:40;23.30;16.10
652;DHT22;310;48.490;9.200;2023-03-19T12:57:50;24.70;15.00
652;DHT22;310;48.490;9.200;2023-03-19T13:05:59;22.30;17.20
652;DHT22;310;48.490;9.200;2023-03-19T13:08:57;22.20;17.60
652;DHT22;310;48.490;9.200;2023-03-19T13:14:31;21.30;17.90
652;DHT22;310;48.490;9.200;2023-03-19T13:19:53;19.20;21.30
652;DHT22;310;48.490;9.200;2023-03-19T13:22:29;18.80;21.40
652;DHT22;310;48.490;9.200;2023-03-19T13:24:57;18.70;22.10
652;DHT22;310;48.490;9.200;2023-03-19T13:27:33;18.20;22.50
652;DHT22;310;48.490;9.200;2023-03-19T13:30:15;17.90;22.80
652;DHT22;310;48.490;9.200;2023-03-19T13:33:05;18.30;22.70
652;DHT22;310;48.490;9.200;2023-03-19T13:35:44;18.10;22.90
652;DHT22;310;48.490;9.200;2023-03-19T13:54:06;18.00;22.90
652;DHT22;310;48.490;9.200;2023-03-19T13:59:26;17.50;24.20
652;DHT22;310;48.490;9.200;2023-03-19T14:01:53;17.70;24.30
652;DHT22;310;48.490;9.200;2023-03-19T14:06:49;18.40;24.10
652;DHT22;310;48.490;9.200;2023-03-19T14:12:21;17.50;27.80
652;DHT22;310;48.490;9.200;2023-03-19T14:14:58;17.40;29.50
652;DHT22;310;48.490;9.200;2023-03-19T14:17:31;17.30;30.00
652;DHT22;310;48.490;9.200;2023-03-19T14:25:27;17.10;30.20
652;DHT22;310;48.490;9.200;2023-03-19T14:28:16;17.30;30.00
652;DHT22;310;48.490;9.200;2023-03-19T14:30:47;17.50;28.90
652;DHT22;310;48.490;9.200;2023-03-19T14:33:31;17.90;29.50
652;DHT22;310;48.490;9.200;2023-03-19T14:36:02;17.80;29.00
652;DHT22;310;48.490;9.200;2023-03-19T14:41:16;17.30;31.80
652;DHT22;310;48.490;9.200;2023-03-19T14:52:01;17.40;32.50
652;DHT22;310;48.490;9.200;2023-03-19T14:54:37;17.30;33.20
652;DHT22;310;48.490;9.200;2023-03-19T14:57:07;17.50;33.90
652;DHT22;310;48.490;9.200;2023-03-19T14:59:38;17.60;30.70
652;DHT22;310;48.490;9.200;2023-03-19T15:02:14;17.70;32.40
652;DHT22;310;48.490;9.200;2023-03-19T15:04:44;17.70;33.20
652;DHT22;310;48.490;9.200;2023-03-19T15:07:17;17.80;33.40
652;DHT22;310;48.490;9.200;2023-03-19T15:09:44;17.70;32.70
652;DHT22;310;48.490;9.200;2023-03-19T15:17:24;18.00;29.60
652;DHT22;310;48.490;9.200;2023-03-19T15:19:52;18.50;30.10
652;DHT22;310;48.490;9.200;2023-03-19T15:22:24;18.30;29.30
652;DHT22;310;48.490;9.200;2023-03-19T15:24:50;18.40;30.80
652;DHT22;310;48.490;9.200;2023-03-19T15:27:19;18.40;30.50
652;DHT22;310;48.490;9.200;2023-03-19T15:29:45;18.50;29.80
652;DHT22;310;48.490;9.200;2023-03-19T15:32:10;18.70;30.00
652;DHT22;310;48.490;9.200;2023-03-19T15:34:36;18.90;30.00
652;DHT22;310;48.490;9.200;2023-03-19T15:37:10;19.00;29.60
652;DHT22;310;48.490;9.200;2023-03-19T15:39:42;18.90;28.30
652;DHT22;310;48.490;9.200;2023-03-19T15:42:09;18.50;29.60
652;DHT22;310;48.490;9.200;2023-03-19T15:44:41;18.50;29.30
652;DHT22;310;48.490;9.200;2023-03-19T15:47:11;18.50;29.90
652;DHT22;310;48.490;9.200;2023-03-19T15:49:43;18.50;29.30
652;DHT22;310;48.490;9.200;2023-03-19T15:52:14;18.20;29.40
652;DHT22;310;48.490;9.200;2023-03-19T15:54:41;17.60;31.00
652;DHT22;310;48.490;9.200;2023-03-19T15:57:10;17.60;32.30
652;DHT22;310;48.490;9.200;2023-03-19T15:59:37;17.30;32.50
652;DHT22;310;48.490;9.200;2023-03-19T16:02:15;17.30;32.50
652;DHT22;310;48.490;9.200;2023-03-19T16:04:44;17.40;32.50
652;DHT22;310;48.490;9.200;2023-03-19T16:07:22;17.40;32.40
652;DHT22;310;48.490;9.200;2023-03-19T16:09:48;17.50;31.20
652;DHT22;310;48.490;9.200;2023-03-19T16:12:37;17.40;30.20
652;DHT22;310;48.490;9.200;2023-03-19T16:15:43;17.30;32.30
652;DHT22;310;48.490;9.200;2023-03-19T16:20:42;18.30;29.90
652;DHT22;310;48.490;9.200;2023-03-19T16:23:14;18.40;29.50
652;DHT22;310;48.490;9.200;2023-03-19T16:25:43;18.30;29.80
652;DHT22;310;48.490;9.200;2023-03-19T16:28:18;18.60;29.00
652;DHT22;310;48.490;9.200;2023-03-19T16:30:46;18.90;28.30
652;DHT22;310;48.490;9.200;2023-03-19T16:33:13;18.70;28.60
652;DHT22;310;48.490;9.200;2023-03-19T16:35:39;18.60;29.20
652;DHT22;310;48.490;9.200;2023-03-19T16:38:22;18.30;29.20
652;DHT22;310;48.490;9.200;2023-03-19T16:41:06;18.20;30.30
652;DHT22;310;48.490;9.200;2023-03-19T16:43:36;18.10;31.50
652;DHT22;310;48.490;9.200;2023-03-19T16:46:09;18.00;30.50
652;DHT22;310;48.490;9.200;2023-03-19T16:48:37;18.00;31.20
652;DHT22;310;48.490;9.200;2023-03-19T16:51:03;17.90;31.60
652;DHT22;310;48.490;9.200;2023-03-19T16:53:30;18.00;32.30
652;DHT22;310;48.490;9.200;2023-03-19T16:55:57;17.80;32.50
652;DHT22;310;48.490;9.200;2023-03-19T16:58:32;17.50;33.00
652;DHT22;310;48.490;9.200;2023-03-19T17:00:59;17.20;33.50
652;DHT22;310;48.490;9.200;2023-03-19T17:03:25;17.10;34.20
652;DHT22;310;48.490;9.200;2023-03-19T17:05:54;17.30;34.00
652;DHT22;310;48.490;9.200;2023-03-19T17:08:20;17.30;33.40
652;DHT22;310;48.490;9.200;2023-03-19T17:10:49;17.10;33.30
652;DHT22;310;48.490;9.200;2023-03-19T17:13:20;17.10;33.70
652;DHT22;310;48.490;9.200;2023-03-19T17:15:48;16.80;33.90
652;DHT22;310;48.490;9.200;2023-03-19T17:18:20;16.70;34.70
652;DHT22;310;48.490;9.200;2023-03-19T17:20:56;16.70;34.40
652;DHT22;310;48.490;9.200;2023-03-19T17:23:22;17.00;34.50
652;DHT22;310;48.490;9.200;2023-03-19T17:25:51;17.10;35.40
652;DHT22;310;48.490;9.200;2023-03-19T17:28:17;16.90;35.20
652;DHT22;310;48.490;9.200;2023-03-19T17:30:43;16.80;36.20
652;DHT22;310;48.490;9.200;2023-03-19T17:33:28;17.00;35.00
652;DHT22;310;48.490;9.200;2023-03-19T17:35:56;16.50;37.10
652;DHT22;310;48.490;9.200;2023-03-19T17:38:26;16.50;37.30
652;DHT22;310;48.490;9.200;2023-03-19T17:40:53;16.60;37.20
652;DHT22;310;48.490;9.200;2023-03-19T17:43:19;16.90;36.50
652;DHT22;310;48.490;9.200;2023-03-19T17:45:45;17.20;35.10
652;DHT22;310;48.490;9.200;2023-03-19T17:48:20;17.00;35.20
652;DHT22;310;48.490;9.200;2023-03-19T17:50:47;17.00;35.10
652;DHT22;310;48.490;9.200;2023-03-19T17:53:13;16.70;36.70
652;DHT22;310;48.490;9.200;2023-03-19T17:55:39;16.50;37.00
652;DHT22;310;48.490;9.200;2023-03-19T17:58:08;16.50;37.10
652;DHT22;310;48.490;9.200;2023-03-19T18:00:36;16.70;36.60
652;DHT22;310;48.490;9.200;2023-03-19T18:03:01;16.80;36.30
652;DHT22;310;48.490;9.200;2023-03-19T18:05:27;16.80;36.50
652;DHT22;310;48.490;9.200;2023-03-19T18:07:54;16.80;37.10
652;DHT22;310;48.490;9.200;2023-03-19T18:10:25;17.00;35.10
652;DHT22;310;48.490;9.200;2023-03-19T18:12:52;17.00;34.70
652;DHT22;310;48.490;9.200;2023-03-19T18:15:19;16.80;36.10
652;DHT22;310;48.490;9.200;2023-03-19T18:17:51;17.00;35.10
652;DHT22;310;48.490;9.200;2023-03-19T18:20:20;17.10;34.70
652;DHT22;310;48.490;9.200;2023-03-19T18:22:46;16.70;36.60
652;DHT22;310;48.490;9.200;2023-03-19T18:25:16;16.70;36.70
652;DHT22;310;48.490;9.200;2023-03-19T18:27:42;16.90;35.50
652;DHT22;310;48.490;9.200;2023-03-19T18:30:11;16.80;35.20
652;DHT22;310;48.490;9.200;2023-03-19T18:32:37;16.50;35.90
652;DHT22;310;48.490;9.200;2023-03-19T18:35:13;16.10;36.70
652;DHT22;310;48.490;9.200;2023-03-19T18:37:39;16.40;38.30
652;DHT22;310;48.490;9.200;2023-03-19T18:40:05;16.80;34.50
652;DHT22;310;48.490;9.200;2023-03-19T18:42:31;16.90;35.00
652;DHT22;310;48.490;9.200;2023-03-19T18:44:56;17.00;34.70